sensor_id;sensor_type;location;lat;lon;timestamp;P1;durP1;ratioP1;P2;durP2;ratioP2
71867;SDS011;59738;48.324;14.230;2022-11-18T00:01:42;10.35;;;4.63;;
71867;SDS011;59738;48.324;14.230;2022-11-18T00:04:10;11.23;;;4.95;;
71867;SDS011;59738;48.324;14.230;2022-11-18T00:06:37;11.38;;;6.32;;
71867;SDS011;59738;48.324;14.230;2022-11-18T00:09:05;12.67;;;6.50;;
71867;SDS011;59738;48.324;14.230;2022-11-18T00:11:32;12.80;;;6.50;;
71867;SDS011;59738;48.324;14.230;2022-11-18T00:14:20;13.98;;;6.90;;
71867;SDS011;59738;48.324;14.230;2022-11-18T00:16:50;11.77;;;6.75;;
71867;SDS011;59738;48.324;14.230;2022-11-18T00:19:19;13.27;;;7.22;;
71867;SDS011;59738;48.324;14.230;2022-11-18T00:21:48;15.43;;;7.80;;
71867;SDS011;59738;48.324;14.230;2022-11-18T00:24:16;12.93;;;6.25;;
71867;SDS011;59738;48.324;14.230;2022-11-18T00:26:43;12.60;;;6.75;;
71867;SDS011;59738;48.324;14.230;2022-11-18T00:29:11;10.82;;;6.35;;
71867;SDS011;59738;48.324;14.230;2022-11-18T00:31:40;15.57;;;6.13;;
71867;SDS011;59738;48.324;14.230;2022-11-18T00:34:09;12.87;;;7.20;;
71867;SDS011;59738;48.324;14.230;2022-11-18T00:36:37;14.90;;;7.63;;
71867;SDS011;59738;48.324;14.230;2022-11-18T00:39:05;14.13;;;6.68;;
71867;SDS011;59738;48.324;14.230;2022-11-18T00:41:32;13.60;;;7.38;;
71867;SDS011;59738;48.324;14.230;2022-11-18T00:44:14;14.52;;;7.13;;
71867;SDS011;59738;48.324;14.230;2022-11-18T00:46:42;14.30;;;7.47;;
71867;SDS011;59738;48.324;14.230;2022-11-18T00:49:10;18.65;;;8.05;;
71867;SDS011;59738;48.324;14.230;2022-11-18T00:51:37;16.05;;;7.85;;
71867;SDS011;59738;48.324;14.230;2022-11-18T00:54:05;19.40;;;7.70;;
71867;SDS011;59738;48.324;14.230;2022-11-18T00:56:33;12.63;;;7.43;;
71867;SDS011;59738;48.324;14.230;2022-11-18T00:59:00;15.03;;;7.93;;
71867;SDS011;59738;48.324;14.230;2022-11-18T01:01:28;16.30;;;8.52;;
71867;SDS011;59738;48.324;14.230;2022-11-18T01:03:56;189.07;;;12.25;;
71867;SDS011;59738;48.324;14.230;2022-11-18T01:06:25;174.05;;;11.35;;
71867;SDS011;59738;48.324;14.230;2022-11-18T01:08:52;131.52;;;11.70;;
71867;SDS011;59738;48.324;14.230;2022-11-18T01:11:20;69.70;;;10.30;;
71867;SDS011;59738;48.324;14.230;2022-11-18T01:14:05;189.77;;;11.48;;
71867;SDS011;59738;48.324;14.230;2022-11-18T01:16:32;232.43;;;13.23;;
71867;SDS011;59738;48.324;14.230;2022-11-18T01:19:01;234.25;;;12.95;;
71867;SDS011;59738;48.324;14.230;2022-11-18T01:21:29;362.38;;;15.65;;
71867;SDS011;59738;48.324;14.230;2022-11-18T01:23:56;157.33;;;12.23;;
71867;SDS011;59738;48.324;14.230;2022-11-18T01:26:23;226.40;;;12.82;;
71867;SDS011;59738;48.324;14.230;2022-11-18T01:28:53;179.90;;;12.23;;
71867;SDS011;59738;48.324;14.230;2022-11-18T01:31:21;290.40;;;14.68;;
71867;SDS011;59738;48.324;14.230;2022-11-18T01:33:49;202.05;;;12.82;;
71867;SDS011;59738;48.324;14.230;2022-11-18T01:36:19;180.80;;;13.00;;
71867;SDS011;59738;48.324;14.230;2022-11-18T01:38:48;210.93;;;12.43;;
71867;SDS011;59738;48.324;14.230;2022-11-18T01:41:16;232.10;;;12.63;;
71867;SDS011;59738;48.324;14.230;2022-11-18T01:43:47;125.78;;;10.27;;
71867;SDS011;59738;48.324;14.230;2022-11-18T01:46:16;111.15;;;10.68;;
71867;SDS011;59738;48.324;14.230;2022-11-18T01:48:44;153.80;;;11.23;;
71867;SDS011;59738;48.324;14.230;2022-11-18T01:51:15;135.32;;;12.73;;
71867;SDS011;59738;48.324;14.230;2022-11-18T01:53:46;146.23;;;12.55;;
71867;SDS011;59738;48.324;14.230;2022-11-18T01:56:16;237.13;;;15.68;;
71867;SDS011;59738;48.324;14.230;2022-11-18T01:58:46;194.93;;;13.57;;
71867;SDS011;59738;48.324;14.230;2022-11-18T02:01:17;134.63;;;10.17;;
71867;SDS011;59738;48.324;14.230;2022-11-18T02:03:44;212.23;;;11.13;;
71867;SDS011;59738;48.324;14.230;2022-11-18T02:06:12;56.65;;;7.63;;
71867;SDS011;59738;48.324;14.230;2022-11-18T02:08:41;134.82;;;9.77;;
71867;SDS011;59738;48.324;14.230;2022-11-18T02:11:09;67.95;;;7.65;;
71867;SDS011;59738;48.324;14.230;2022-11-18T02:13:59;132.17;;;10.00;;
71867;SDS011;59738;48.324;14.230;2022-11-18T02:16:31;41.97;;;8.07;;
71867;SDS011;59738;48.324;14.230;2022-11-18T02:19:10;32.13;;;7.45;;
71867;SDS011;59738;48.324;14.230;2022-11-18T02:21:45;26.25;;;8.00;;
71867;SDS011;59738;48.324;14.230;2022-11-18T02:24:27;29.90;;;8.70;;
71867;SDS011;59738;48.324;14.230;2022-11-18T02:29:59;40.42;;;7.72;;
71867;SDS011;59738;48.324;14.230;2022-11-18T02:32:28;32.40;;;7.80;;
71867;SDS011;59738;48.324;14.230;2022-11-18T02:35:00;32.20;;;7.60;;
71867;SDS011;59738;48.324;14.230;2022-11-18T02:37:32;56.33;;;9.25;;
71867;SDS011;59738;48.324;14.230;2022-11-18T02:40:04;32.37;;;8.13;;
71867;SDS011;59738;48.324;14.230;2022-11-18T02:42:34;25.35;;;9.15;;
71867;SDS011;59738;48.324;14.230;2022-11-18T02:45:05;24.30;;;9.50;;
71867;SDS011;59738;48.324;14.230;2022-11-18T02:47:33;62.28;;;9.13;;
71867;SDS011;59738;48.324;14.230;2022-11-18T02:50:03;23.95;;;10.27;;
71867;SDS011;59738;48.324;14.230;2022-11-18T02:52:32;25.83;;;10.93;;
71867;SDS011;59738;48.324;14.230;2022-11-18T02:55:01;149.60;;;11.48;;
71867;SDS011;59738;48.324;14.230;2022-11-18T02:57:30;191.05;;;12.27;;
71867;SDS011;59738;48.324;14.230;2022-11-18T02:59:59;97.88;;;10.75;;
71867;SDS011;59738;48.324;14.230;2022-11-18T03:02:38;98.57;;;11.20;;
71867;SDS011;59738;48.324;14.230;2022-11-18T03:05:06;67.93;;;9.07;;
71867;SDS011;59738;48.324;14.230;2022-11-18T03:07:36;183.68;;;12.88;;
71867;SDS011;59738;48.324;14.230;2022-11-18T03:10:05;217.63;;;12.57;;
71867;SDS011;59738;48.324;14.230;2022-11-18T03:12:36;113.70;;;11.40;;
71867;SDS011;59738;48.324;14.230;2022-11-18T03:15:10;175.55;;;10.63;;
71867;SDS011;59738;48.324;14.230;2022-11-18T03:17:46;71.13;;;9.40;;
71867;SDS011;59738;48.324;14.230;2022-11-18T03:20:25;129.13;;;9.93;;
71867;SDS011;59738;48.324;14.230;2022-11-18T03:22:54;176.93;;;11.93;;
71867;SDS011;59738;48.324;14.230;2022-11-18T03:25:27;162.30;;;10.07;;
71867;SDS011;59738;48.324;14.230;2022-11-18T03:27:59;184.02;;;11.55;;
71867;SDS011;59738;48.324;14.230;2022-11-18T03:30:32;86.30;;;9.10;;
71867;SDS011;59738;48.324;14.230;2022-11-18T03:33:03;136.13;;;9.60;;
71867;SDS011;59738;48.324;14.230;2022-11-18T03:35:33;156.10;;;10.95;;
71867;SDS011;59738;48.324;14.230;2022-11-18T03:38:04;184.23;;;13.13;;
71867;SDS011;59738;48.324;14.230;2022-11-18T03:40:35;125.03;;;11.32;;
71867;SDS011;59738;48.324;14.230;2022-11-18T03:43:05;115.40;;;11.67;;
71867;SDS011;59738;48.324;14.230;2022-11-18T03:45:36;125.72;;;11.90;;
71867;SDS011;59738;48.324;14.230;2022-11-18T03:48:08;137.32;;;11.45;;
71867;SDS011;59738;48.324;14.230;2022-11-18T03:50:38;90.45;;;11.13;;
71867;SDS011;59738;48.324;14.230;2022-11-18T03:53:08;67.65;;;10.77;;
71867;SDS011;59738;48.324;14.230;2022-11-18T03:55:38;173.93;;;12.40;;
71867;SDS011;59738;48.324;14.230;2022-11-18T03:58:08;134.73;;;12.20;;
71867;SDS011;59738;48.324;14.230;2022-11-18T04:00:39;149.43;;;14.02;;
71867;SDS011;59738;48.324;14.230;2022-11-18T04:03:10;141.40;;;13.85;;
71867;SDS011;59738;48.324;14.230;2022-11-18T04:05:39;115.80;;;12.52;;
71867;SDS011;59738;48.324;14.230;2022-11-18T04:08:08;119.53;;;14.47;;
71867;SDS011;59738;48.324;14.230;2022-11-18T04:10:39;89.30;;;12.95;;
71867;SDS011;59738;48.324;14.230;2022-11-18T04:13:10;66.03;;;12.77;;
71867;SDS011;59738;48.324;14.230;2022-11-18T04:15:41;66.70;;;13.90;;
71867;SDS011;59738;48.324;14.230;2022-11-18T04:18:11;46.42;;;13.15;;
71867;SDS011;59738;48.324;14.230;2022-11-18T04:20:38;39.97;;;13.70;;
71867;SDS011;59738;48.324;14.230;2022-11-18T04:23:06;31.25;;;13.30;;
71867;SDS011;59738;48.324;14.230;2022-11-18T04:25:34;34.53;;;13.45;;
71867;SDS011;59738;48.324;14.230;2022-11-18T04:28:02;35.22;;;13.43;;
71867;SDS011;59738;48.324;14.230;2022-11-18T04:30:30;32.97;;;13.02;;
71867;SDS011;59738;48.324;14.230;2022-11-18T04:32:58;40.63;;;13.43;;
71867;SDS011;59738;48.324;14.230;2022-11-18T04:35:28;37.22;;;12.55;;
71867;SDS011;59738;48.324;14.230;2022-11-18T04:37:57;34.47;;;12.63;;
71867;SDS011;59738;48.324;14.230;2022-11-18T04:40:25;34.88;;;13.00;;
71867;SDS011;59738;48.324;14.230;2022-11-18T04:42:52;59.83;;;12.77;;
71867;SDS011;59738;48.324;14.230;2022-11-18T04:45:20;85.50;;;12.97;;
71867;SDS011;59738;48.324;14.230;2022-11-18T04:47:47;39.83;;;13.02;;
71867;SDS011;59738;48.324;14.230;2022-11-18T04:50:16;52.85;;;14.07;;
71867;SDS011;59738;48.324;14.230;2022-11-18T04:52:45;49.80;;;13.38;;
71867;SDS011;59738;48.324;14.230;2022-11-18T04:55:12;101.18;;;13.82;;
71867;SDS011;59738;48.324;14.230;2022-11-18T04:57:42;225.43;;;15.17;;
71867;SDS011;59738;48.324;14.230;2022-11-18T05:00:10;252.55;;;15.27;;
71867;SDS011;59738;48.324;14.230;2022-11-18T05:02:38;345.13;;;18.10;;
71867;SDS011;59738;48.324;14.230;2022-11-18T05:05:06;369.77;;;18.98;;
71867;SDS011;59738;48.324;14.230;2022-11-18T05:07:34;134.20;;;12.35;;
71867;SDS011;59738;48.324;14.230;2022-11-18T05:10:04;219.57;;;14.97;;
71867;SDS011;59738;48.324;14.230;2022-11-18T05:12:32;303.40;;;15.95;;
71867;SDS011;59738;48.324;14.230;2022-11-18T05:15:13;262.77;;;14.48;;
71867;SDS011;59738;48.324;14.230;2022-11-18T05:17:41;279.52;;;14.77;;
71867;SDS011;59738;48.324;14.230;2022-11-18T05:20:09;148.07;;;11.23;;
71867;SDS011;59738;48.324;14.230;2022-11-18T05:22:37;174.87;;;11.30;;
71867;SDS011;59738;48.324;14.230;2022-11-18T05:25:08;210.27;;;13.15;;
71867;SDS011;59738;48.324;14.230;2022-11-18T05:27:36;157.70;;;11.70;;
71867;SDS011;59738;48.324;14.230;2022-11-18T05:30:03;162.18;;;12.13;;
71867;SDS011;59738;48.324;14.230;2022-11-18T05:32:31;101.10;;;13.32;;
71867;SDS011;59738;48.324;14.230;2022-11-18T05:37:57;130.68;;;16.48;;
71867;SDS011;59738;48.324;14.230;2022-11-18T05:40:27;97.90;;;15.32;;
71867;SDS011;59738;48.324;14.230;2022-11-18T05:42:55;58.15;;;14.40;;
71867;SDS011;59738;48.324;14.230;2022-11-18T05:45:36;57.33;;;14.13;;
71867;SDS011;59738;48.324;14.230;2022-11-18T05:48:05;68.60;;;14.90;;
71867;SDS011;59738;48.324;14.230;2022-11-18T05:50:34;55.90;;;15.80;;
71867;SDS011;59738;48.324;14.230;2022-11-18T05:53:03;58.90;;;15.13;;
71867;SDS011;59738;48.324;14.230;2022-11-18T05:55:34;42.60;;;14.48;;
71867;SDS011;59738;48.324;14.230;2022-11-18T05:58:06;47.45;;;12.13;;
71867;SDS011;59738;48.324;14.230;2022-11-18T06:00:34;45.07;;;14.07;;
71867;SDS011;59738;48.324;14.230;2022-11-18T06:03:01;44.00;;;13.55;;
71867;SDS011;59738;48.324;14.230;2022-11-18T06:05:30;42.53;;;13.07;;
71867;SDS011;59738;48.324;14.230;2022-11-18T06:08:00;32.92;;;13.13;;
71867;SDS011;59738;48.324;14.230;2022-11-18T06:10:28;34.72;;;12.50;;
71867;SDS011;59738;48.324;14.230;2022-11-18T06:12:58;34.60;;;12.83;;
71867;SDS011;59738;48.324;14.230;2022-11-18T06:15:29;31.23;;;12.35;;
71867;SDS011;59738;48.324;14.230;2022-11-18T06:17:59;57.65;;;13.15;;
71867;SDS011;59738;48.324;14.230;2022-11-18T06:20:28;138.93;;;12.85;;
71867;SDS011;59738;48.324;14.230;2022-11-18T06:22:56;211.80;;;13.50;;
71867;SDS011;59738;48.324;14.230;2022-11-18T06:25:25;159.70;;;13.97;;
71867;SDS011;59738;48.324;14.230;2022-11-18T06:27:53;269.80;;;16.73;;
71867;SDS011;59738;48.324;14.230;2022-11-18T06:30:24;179.35;;;14.95;;
71867;SDS011;59738;48.324;14.230;2022-11-18T06:32:52;216.45;;;14.52;;
71867;SDS011;59738;48.324;14.230;2022-11-18T06:35:20;146.68;;;12.48;;
71867;SDS011;59738;48.324;14.230;2022-11-18T06:37:47;80.73;;;12.47;;
71867;SDS011;59738;48.324;14.230;2022-11-18T06:40:15;70.07;;;12.60;;
71867;SDS011;59738;48.324;14.230;2022-11-18T06:42:45;174.25;;;14.80;;
71867;SDS011;59738;48.324;14.230;2022-11-18T06:45:31;85.88;;;15.20;;
71867;SDS011;59738;48.324;14.230;2022-11-18T06:48:00;100.55;;;13.30;;
71867;SDS011;59738;48.324;14.230;2022-11-18T06:50:29;127.13;;;13.90;;
71867;SDS011;59738;48.324;14.230;2022-11-18T06:52:58;101.15;;;13.50;;
71867;SDS011;59738;48.324;14.230;2022-11-18T06:55:26;131.57;;;15.10;;
71867;SDS011;59738;48.324;14.230;2022-11-18T06:57:54;104.50;;;14.93;;
71867;SDS011;59738;48.324;14.230;2022-11-18T07:00:22;116.43;;;14.07;;
71867;SDS011;59738;48.324;14.230;2022-11-18T07:02:51;93.20;;;13.10;;
71867;SDS011;59738;48.324;14.230;2022-11-18T07:05:18;101.28;;;12.32;;
71867;SDS011;59738;48.324;14.230;2022-11-18T07:07:46;94.93;;;13.15;;
71867;SDS011;59738;48.324;14.230;2022-11-18T07:10:14;61.00;;;12.45;;
71867;SDS011;59738;48.324;14.230;2022-11-18T07:12:42;78.45;;;11.48;;
71867;SDS011;59738;48.324;14.230;2022-11-18T07:15:10;90.30;;;10.97;;
71867;SDS011;59738;48.324;14.230;2022-11-18T07:17:38;83.45;;;11.02;;
71867;SDS011;59738;48.324;14.230;2022-11-18T07:20:08;76.43;;;11.48;;
71867;SDS011;59738;48.324;14.230;2022-11-18T07:22:36;115.60;;;10.57;;
71867;SDS011;59738;48.324;14.230;2022-11-18T07:25:04;37.10;;;8.80;;
71867;SDS011;59738;48.324;14.230;2022-11-18T07:27:32;22.27;;;9.17;;
71867;SDS011;59738;48.324;14.230;2022-11-18T07:29:59;53.30;;;9.80;;
71867;SDS011;59738;48.324;14.230;2022-11-18T07:32:27;81.60;;;9.52;;
71867;SDS011;59738;48.324;14.230;2022-11-18T07:34:54;109.22;;;10.45;;
71867;SDS011;59738;48.324;14.230;2022-11-18T07:37:23;167.23;;;11.10;;
71867;SDS011;59738;48.324;14.230;2022-11-18T07:39:50;166.23;;;10.93;;
71867;SDS011;59738;48.324;14.230;2022-11-18T07:42:19;131.50;;;10.88;;
71867;SDS011;59738;48.324;14.230;2022-11-18T07:44:46;193.13;;;11.82;;
71867;SDS011;59738;48.324;14.230;2022-11-18T07:47:14;251.13;;;12.90;;
71867;SDS011;59738;48.324;14.230;2022-11-18T07:49:41;194.48;;;12.93;;
71867;SDS011;59738;48.324;14.230;2022-11-18T07:52:08;198.97;;;13.13;;
71867;SDS011;59738;48.324;14.230;2022-11-18T07:54:37;302.38;;;15.30;;
71867;SDS011;59738;48.324;14.230;2022-11-18T07:57:05;254.95;;;13.98;;
71867;SDS011;59738;48.324;14.230;2022-11-18T07:59:32;288.80;;;14.35;;
71867;SDS011;59738;48.324;14.230;2022-11-18T08:02:00;198.55;;;12.10;;
71867;SDS011;59738;48.324;14.230;2022-11-18T08:04:27;183.63;;;12.03;;
71867;SDS011;59738;48.324;14.230;2022-11-18T08:06:55;241.98;;;13.32;;
71867;SDS011;59738;48.324;14.230;2022-11-18T08:09:22;193.35;;;11.55;;
71867;SDS011;59738;48.324;14.230;2022-11-18T08:11:51;96.38;;;9.65;;
71867;SDS011;59738;48.324;14.230;2022-11-18T08:14:19;42.25;;;9.23;;
71867;SDS011;59738;48.324;14.230;2022-11-18T08:16:48;37.67;;;8.90;;
71867;SDS011;59738;48.324;14.230;2022-11-18T08:19:16;30.13;;;10.27;;
71867;SDS011;59738;48.324;14.230;2022-11-18T08:21:44;22.20;;;10.82;;
71867;SDS011;59738;48.324;14.230;2022-11-18T08:24:12;21.88;;;10.15;;
71867;SDS011;59738;48.324;14.230;2022-11-18T08:26:39;22.65;;;9.73;;
71867;SDS011;59738;48.324;14.230;2022-11-18T08:29:09;21.57;;;9.93;;
71867;SDS011;59738;48.324;14.230;2022-11-18T08:31:37;20.40;;;9.75;;
71867;SDS011;59738;48.324;14.230;2022-11-18T08:34:05;21.83;;;9.93;;
71867;SDS011;59738;48.324;14.230;2022-11-18T08:36:34;17.23;;;9.43;;
71867;SDS011;59738;48.324;14.230;2022-11-18T08:39:03;16.63;;;8.50;;
71867;SDS011;59738;48.324;14.230;2022-11-18T08:41:32;17.27;;;8.87;;
71867;SDS011;59738;48.324;14.230;2022-11-18T08:44:00;16.92;;;8.32;;
71867;SDS011;59738;48.324;14.230;2022-11-18T08:46:29;14.75;;;7.50;;
71867;SDS011;59738;48.324;14.230;2022-11-18T08:48:57;19.83;;;9.23;;
71867;SDS011;59738;48.324;14.230;2022-11-18T08:51:25;23.38;;;10.23;;
71867;SDS011;59738;48.324;14.230;2022-11-18T08:53:53;17.63;;;8.60;;
71867;SDS011;59738;48.324;14.230;2022-11-18T08:56:21;18.45;;;9.02;;
71867;SDS011;59738;48.324;14.230;2022-11-18T08:58:49;18.63;;;8.20;;
71867;SDS011;59738;48.324;14.230;2022-11-18T09:01:17;16.80;;;8.20;;
71867;SDS011;59738;48.324;14.230;2022-11-18T09:03:46;17.00;;;7.70;;
71867;SDS011;59738;48.324;14.230;2022-11-18T09:06:15;14.90;;;7.73;;
71867;SDS011;59738;48.324;14.230;2022-11-18T09:08:43;15.68;;;8.02;;
71867;SDS011;59738;48.324;14.230;2022-11-18T09:11:12;15.10;;;7.45;;
71867;SDS011;59738;48.324;14.230;2022-11-18T09:13:40;16.65;;;7.40;;
71867;SDS011;59738;48.324;14.230;2022-11-18T09:16:07;15.25;;;7.05;;
71867;SDS011;59738;48.324;14.230;2022-11-18T09:18:35;13.33;;;6.60;;
71867;SDS011;59738;48.324;14.230;2022-11-18T09:21:05;16.52;;;7.32;;
71867;SDS011;59738;48.324;14.230;2022-11-18T09:23:33;14.98;;;6.65;;
71867;SDS011;59738;48.324;14.230;2022-11-18T09:26:02;13.25;;;6.88;;
71867;SDS011;59738;48.324;14.230;2022-11-18T09:28:31;12.88;;;6.60;;
71867;SDS011;59738;48.324;14.230;2022-11-18T09:30:59;14.37;;;7.33;;
71867;SDS011;59738;48.324;14.230;2022-11-18T09:33:29;13.07;;;6.25;;
71867;SDS011;59738;48.324;14.230;2022-11-18T09:35:57;14.93;;;7.15;;
71867;SDS011;59738;48.324;14.230;2022-11-18T09:38:27;16.20;;;7.10;;
71867;SDS011;59738;48.324;14.230;2022-11-18T09:40:59;15.40;;;7.50;;
71867;SDS011;59738;48.324;14.230;2022-11-18T09:43:34;16.13;;;7.77;;
71867;SDS011;59738;48.324;14.230;2022-11-18T09:46:07;13.20;;;6.88;;
71867;SDS011;59738;48.324;14.230;2022-11-18T09:48:44;14.75;;;7.57;;
71867;SDS011;59738;48.324;14.230;2022-11-18T09:51:28;14.25;;;7.45;;
71867;SDS011;59738;48.324;14.230;2022-11-18T09:53:59;13.13;;;6.70;;
71867;SDS011;59738;48.324;14.230;2022-11-18T09:56:27;14.57;;;7.33;;
71867;SDS011;59738;48.324;14.230;2022-11-18T09:58:54;15.60;;;7.63;;
71867;SDS011;59738;48.324;14.230;2022-11-18T10:01:22;11.90;;;6.15;;
71867;SDS011;59738;48.324;14.230;2022-11-18T10:03:50;9.43;;;5.30;;
71867;SDS011;59738;48.324;14.230;2022-11-18T10:06:19;15.43;;;6.78;;
71867;SDS011;59738;48.324;14.230;2022-11-18T10:08:54;12.60;;;6.40;;
71867;SDS011;59738;48.324;14.230;2022-11-18T10:11:33;12.32;;;6.25;;
71867;SDS011;59738;48.324;14.230;2022-11-18T10:14:07;12.80;;;6.25;;
71867;SDS011;59738;48.324;14.230;2022-11-18T10:16:43;12.48;;;5.88;;
71867;SDS011;59738;48.324;14.230;2022-11-18T10:19:21;8.93;;;4.93;;
71867;SDS011;59738;48.324;14.230;2022-11-18T10:21:55;10.70;;;4.83;;
71867;SDS011;59738;48.324;14.230;2022-11-18T10:24:29;9.07;;;5.18;;
71867;SDS011;59738;48.324;14.230;2022-11-18T10:26:59;9.18;;;5.22;;
71867;SDS011;59738;48.324;14.230;2022-11-18T10:29:27;10.00;;;4.90;;
71867;SDS011;59738;48.324;14.230;2022-11-18T10:31:58;7.47;;;4.25;;
71867;SDS011;59738;48.324;14.230;2022-11-18T10:34:27;8.97;;;5.00;;
71867;SDS011;59738;48.324;14.230;2022-11-18T10:36:57;7.07;;;3.80;;
71867;SDS011;59738;48.324;14.230;2022-11-18T10:39:25;6.03;;;3.38;;
71867;SDS011;59738;48.324;14.230;2022-11-18T10:41:57;5.40;;;3.10;;
71867;SDS011;59738;48.324;14.230;2022-11-18T10:44:28;6.65;;;2.78;;
71867;SDS011;59738;48.324;14.230;2022-11-18T10:49:52;3.72;;;2.50;;
71867;SDS011;59738;48.324;14.230;2022-11-18T10:52:22;4.63;;;2.60;;
71867;SDS011;59738;48.324;14.230;2022-11-18T10:55:06;4.53;;;2.70;;
71867;SDS011;59738;48.324;14.230;2022-11-18T10:57:42;3.58;;;2.15;;
71867;SDS011;59738;48.324;14.230;2022-11-18T11:09:02;4.88;;;2.25;;
71867;SDS011;59738;48.324;14.230;2022-11-18T11:11:33;2.95;;;2.20;;
71867;SDS011;59738;48.324;14.230;2022-11-18T11:14:10;3.50;;;1.80;;
71867;SDS011;59738;48.324;14.230;2022-11-18T11:16:45;2.35;;;1.50;;
71867;SDS011;59738;48.324;14.230;2022-11-18T11:19:17;2.22;;;1.70;;
71867;SDS011;59738;48.324;14.230;2022-11-18T11:21:47;3.50;;;1.90;;
71867;SDS011;59738;48.324;14.230;2022-11-18T11:24:15;2.92;;;1.77;;
71867;SDS011;59738;48.324;14.230;2022-11-18T11:26:45;1.60;;;1.50;;
71867;SDS011;59738;48.324;14.230;2022-11-18T11:29:20;2.20;;;1.70;;
71867;SDS011;59738;48.324;14.230;2022-11-18T11:31:57;1.75;;;1.50;;
71867;SDS011;59738;48.324;14.230;2022-11-18T11:34:33;4.00;;;1.80;;
71867;SDS011;59738;48.324;14.230;2022-11-18T11:37:06;4.13;;;2.45;;
71867;SDS011;59738;48.324;14.230;2022-11-18T11:39:45;4.90;;;2.30;;
71867;SDS011;59738;48.324;14.230;2022-11-18T11:42:23;2.80;;;2.30;;
71867;SDS011;59738;48.324;14.230;2022-11-18T11:45:04;3.97;;;2.35;;
71867;SDS011;59738;48.324;14.230;2022-11-18T11:47:51;6.80;;;2.35;;
71867;SDS011;59738;48.324;14.230;2022-11-18T11:50:28;5.78;;;2.70;;
71867;SDS011;59738;48.324;14.230;2022-11-18T11:53:19;5.03;;;3.10;;
71867;SDS011;59738;48.324;14.230;2022-11-18T11:56:04;6.35;;;3.28;;
71867;SDS011;59738;48.324;14.230;2022-11-18T11:58:46;6.55;;;3.58;;
71867;SDS011;59738;48.324;14.230;2022-11-18T12:01:29;5.85;;;3.58;;
71867;SDS011;59738;48.324;14.230;2022-11-18T12:04:01;8.95;;;4.10;;
71867;SDS011;59738;48.324;14.230;2022-11-18T12:06:34;5.83;;;3.60;;
71867;SDS011;59738;48.324;14.230;2022-11-18T12:09:02;8.00;;;4.45;;
71867;SDS011;59738;48.324;14.230;2022-11-18T12:11:36;7.45;;;4.45;;
71867;SDS011;59738;48.324;14.230;2022-11-18T12:14:09;6.65;;;4.05;;
71867;SDS011;59738;48.324;14.230;2022-11-18T12:16:43;6.88;;;4.10;;
71867;SDS011;59738;48.324;14.230;2022-11-18T12:19:14;7.17;;;3.87;;
71867;SDS011;59738;48.324;14.230;2022-11-18T12:21:56;7.63;;;4.93;;
71867;SDS011;59738;48.324;14.230;2022-11-18T12:30:29;1.83;;;1.73;;
71867;SDS011;59738;48.324;14.230;2022-11-18T12:32:58;1.40;;;1.30;;
71867;SDS011;59738;48.324;14.230;2022-11-18T12:38:34;2.17;;;1.83;;
71867;SDS011;59738;48.324;14.230;2022-11-18T12:50:40;1.40;;;1.30;;
71867;SDS011;59738;48.324;14.230;2022-11-18T13:04:07;2.00;;;1.90;;
71867;SDS011;59738;48.324;14.230;2022-11-18T14:26:14;4.65;;;2.10;;
71867;SDS011;59738;48.324;14.230;2022-11-18T14:28:58;5.73;;;2.00;;
71867;SDS011;59738;48.324;14.230;2022-11-18T14:31:28;1.65;;;1.55;;
71867;SDS011;59738;48.324;14.230;2022-11-18T14:34:13;2.75;;;2.42;;
71867;SDS011;59738;48.324;14.230;2022-11-18T14:36:45;3.25;;;1.85;;
71867;SDS011;59738;48.324;14.230;2022-11-18T14:39:18;1.40;;;1.30;;
71867;SDS011;59738;48.324;14.230;2022-11-18T15:37:47;1.50;;;1.40;;
71867;SDS011;59738;48.324;14.230;2022-11-18T15:40:16;1.88;;;1.40;;
71867;SDS011;59738;48.324;14.230;2022-11-18T15:42:47;1.95;;;1.30;;
71867;SDS011;59738;48.324;14.230;2022-11-18T15:45:21;1.60;;;1.50;;
71867;SDS011;59738;48.324;14.230;2022-11-18T15:47:50;1.70;;;1.60;;
71867;SDS011;59738;48.324;14.230;2022-11-18T15:50:21;1.67;;;1.58;;
71867;SDS011;59738;48.324;14.230;2022-11-18T15:53:10;1.80;;;1.70;;
71867;SDS011;59738;48.324;14.230;2022-11-18T15:55:39;1.75;;;1.65;;
71867;SDS011;59738;48.324;14.230;2022-11-18T18:38:10;3.40;;;2.72;;
71867;SDS011;59738;48.324;14.230;2022-11-18T18:41:01;2.80;;;2.38;;
71867;SDS011;59738;48.324;14.230;2022-11-18T22:38:52;28.90;;;2.88;;
71867;SDS011;59738;48.324;14.230;2022-11-18T22:41:20;2.78;;;2.10;;
71867;SDS011;59738;48.324;14.230;2022-11-18T22:44:06;2.37;;;2.00;;
71867;SDS011;59738;48.324;14.230;2022-11-18T22:46:37;2.60;;;1.77;;
71867;SDS011;59738;48.324;14.230;2022-11-18T22:49:06;2.60;;;1.85;;
71867;SDS011;59738;48.324;14.230;2022-11-18T22:51:35;2.90;;;1.50;;
71867;SDS011;59738;48.324;14.230;2022-11-18T22:54:05;2.28;;;1.75;;
71867;SDS011;59738;48.324;14.230;2022-11-18T22:56:33;1.60;;;1.50;;
71867;SDS011;59738;48.324;14.230;2022-11-18T22:59:00;1.88;;;1.55;;
71867;SDS011;59738;48.324;14.230;2022-11-18T23:01:28;1.88;;;1.50;;
71867;SDS011;59738;48.324;14.230;2022-11-18T23:03:56;1.60;;;1.50;;
71867;SDS011;59738;48.324;14.230;2022-11-18T23:06:24;1.58;;;1.48;;
71867;SDS011;59738;48.324;14.230;2022-11-18T23:08:52;1.47;;;1.37;;
71867;SDS011;59738;48.324;14.230;2022-11-18T23:11:20;1.42;;;1.33;;
71867;SDS011;59738;48.324;14.230;2022-11-18T23:14:02;1.92;;;1.48;;
71867;SDS011;59738;48.324;14.230;2022-11-18T23:16:31;1.20;;;1.10;;
71867;SDS011;59738;48.324;14.230;2022-11-18T23:18:59;3.45;;;1.40;;
71867;SDS011;59738;48.324;14.230;2022-11-18T23:21:28;1.33;;;1.30;;
71867;SDS011;59738;48.324;14.230;2022-11-18T23:23:56;2.72;;;1.27;;
71867;SDS011;59738;48.324;14.230;2022-11-18T23:26:25;1.50;;;1.40;;
71867;SDS011;59738;48.324;14.230;2022-11-18T23:28:53;1.30;;;1.20;;
71867;SDS011;59738;48.324;14.230;2022-11-18T23:31:24;1.55;;;1.45;;
71867;SDS011;59738;48.324;14.230;2022-11-18T23:33:52;4.23;;;1.50;;
71867;SDS011;59738;48.324;14.230;2022-11-18T23:36:21;1.48;;;1.38;;
71867;SDS011;59738;48.324;14.230;2022-11-18T23:38:49;2.83;;;1.60;;
71867;SDS011;59738;48.324;14.230;2022-11-18T23:41:18;1.83;;;1.58;;
71867;SDS011;59738;48.324;14.230;2022-11-18T23:43:48;1.50;;;1.40;;
71867;SDS011;59738;48.324;14.230;2022-11-18T23:46:17;1.60;;;1.50;;
71867;SDS011;59738;48.324;14.230;2022-11-18T23:48:44;1.88;;;1.48;;
71867;SDS011;59738;48.324;14.230;2022-11-18T23:51:13;1.40;;;1.30;;
71867;SDS011;59738;48.324;14.230;2022-11-18T23:53:41;1.50;;;1.40;;
71867;SDS011;59738;48.324;14.230;2022-11-18T23:56:09;1.55;;;1.45;;
71867;SDS011;59738;48.324;14.230;2022-11-18T23:58:40;1.30;;;1.20;;
